AYNZ

Lae Nadzab Airport

Nadzab, Papua New Guinea
METAR AYNZ 200500Z 11020KT 9999 SCT045 30/22 Q1010
Observed Flight Rules
Jun-20 @ 05:00 UTC (46 minutes ago) Visual Flight Rules
Wind Visibility Clouds
110° at 20 knots 10,000+ meters
  • Scattered at 4,500' AGL
Temperatures Readings
Current 30°C / 86°F
Dewpoint 22°C / 72°F
Humidity 62%
Altimeter 29.82" Hg
Pressure 1010 hPa
Elevation 70
METAR AYNZ 200500Z 11020KT 9999 SCT045 30/22 Q1010
Observed Flight Rules
Jun-20 @ 05:00 UTC
(46 minutes ago)
VFR
Wind Visibility
110° at 20 knots 10,000+ meters
Clouds
  • Scattered at 4,500' AGL
Temperature Dewpoint
30°C / 86°F 22°C / 72°F
Humidity Altimeter Pressure
62% 29.82" Hg 1010 hPa